createdAt,value
2022-12-01T00:01:25.284Z,84.78
2022-12-01T00:03:53.750Z,84.95
2022-12-01T00:06:23.102Z,85.25
2022-12-01T00:09:10.919Z,85.09
2022-12-01T00:11:42.771Z,85.23
2022-12-01T00:14:11.152Z,85.01
2022-12-01T00:16:41.208Z,85.05
2022-12-01T00:19:09.602Z,85.08
2022-12-01T00:21:37.931Z,84.96
2022-12-01T00:24:06.665Z,84.78
2022-12-01T00:26:35.108Z,84.94
2022-12-01T00:29:04.851Z,85.09
2022-12-01T00:31:33.288Z,84.83
2022-12-01T00:34:03.810Z,85.05
2022-12-01T00:36:35.191Z,85.02
2022-12-01T00:39:03.550Z,85.13
2022-12-01T00:41:31.896Z,85.13
2022-12-01T00:44:00.257Z,85.24
2022-12-01T00:46:30.428Z,85.13
2022-12-01T00:48:59.052Z,85.32
2022-12-01T00:51:27.542Z,85.53
2022-12-01T00:53:55.903Z,85.35
2022-12-01T00:56:24.355Z,85.11
2022-12-01T00:58:52.710Z,84.97
2022-12-01T01:01:21.175Z,85.30
2022-12-01T01:03:54.366Z,84.87
2022-12-01T01:06:28.541Z,85.06
2022-12-01T01:09:03.085Z,85.08
2022-12-01T01:11:32.119Z,84.84
2022-12-01T01:14:01.147Z,85.01
2022-12-01T01:16:29.859Z,84.83
2022-12-01T01:19:08.166Z,84.89
2022-12-01T01:21:45.656Z,84.72
2022-12-01T01:24:17.074Z,84.94
2022-12-01T01:27:02.164Z,85.08
2022-12-01T01:29:32.978Z,84.87
2022-12-01T01:32:04.549Z,84.95
2022-12-01T01:34:34.662Z,84.75
2022-12-01T01:37:05.548Z,84.81
2022-12-01T01:39:37.306Z,84.95
2022-12-01T01:42:07.769Z,85.00
2022-12-01T01:44:57.320Z,84.75
2022-12-01T01:47:32.355Z,84.60
2022-12-01T01:50:15.939Z,84.77
2022-12-01T01:52:51.604Z,84.38
2022-12-01T01:55:23.573Z,84.76
2022-12-01T01:57:53.307Z,85.25
2022-12-01T02:00:23.690Z,85.18
2022-12-01T02:02:55.989Z,85.39
2022-12-01T02:05:29.567Z,85.21
2022-12-01T02:08:02.429Z,85.36
2022-12-01T02:10:39.916Z,85.00
2022-12-01T02:13:15.151Z,85.05
2022-12-01T02:15:51.855Z,84.87
2022-12-01T02:18:30.071Z,85.07
2022-12-01T02:21:21.370Z,85.22
2022-12-01T02:24:23.054Z,84.79
2022-12-01T02:26:56.073Z,85.06
2022-12-01T02:30:14.833Z,84.71
2022-12-01T02:33:04.397Z,85.13
2022-12-01T02:35:39.084Z,84.66
2022-12-01T02:38:16.967Z,84.81
2022-12-01T02:40:48.591Z,85.26
2022-12-01T02:43:25.410Z,85.29
2022-12-01T02:45:59.449Z,85.09
2022-12-01T02:48:32.793Z,84.85
2022-12-01T02:51:08.351Z,84.97
2022-12-01T02:53:39.888Z,85.15
2022-12-01T02:56:16.250Z,85.26
2022-12-01T02:58:44.913Z,84.91
2022-12-01T03:01:45.330Z,84.92
2022-12-01T03:04:30.987Z,84.76
2022-12-01T03:07:07.451Z,85.20
2022-12-01T03:09:42.794Z,85.06
2022-12-01T03:12:16.977Z,84.87
2022-12-01T03:14:50.477Z,84.98
2022-12-01T03:17:24.015Z,84.96
2022-12-01T03:19:57.576Z,85.09
2022-12-01T03:22:28.566Z,85.14
2022-12-01T03:24:58.125Z,85.04
2022-12-01T03:27:30.066Z,85.28
2022-12-01T03:29:59.874Z,85.22
2022-12-01T03:32:31.963Z,85.00
2022-12-01T03:35:04.873Z,84.66
2022-12-01T03:37:37.784Z,84.66
2022-12-01T03:40:09.438Z,84.86
2022-12-01T03:42:40.478Z,84.56
2022-12-01T03:45:11.405Z,84.48
2022-12-01T03:47:40.610Z,84.67
2022-12-01T03:50:14.268Z,84.91
2022-12-01T03:52:47.442Z,84.49
2022-12-01T03:55:21.059Z,84.71
2022-12-01T03:57:53.453Z,84.63
2022-12-01T04:00:22.858Z,84.66
2022-12-01T04:02:56.195Z,84.70
2022-12-01T04:05:26.561Z,84.94
2022-12-01T04:07:55.073Z,84.96
2022-12-01T04:10:23.622Z,84.60
2022-12-01T04:12:51.020Z,84.26
2022-12-01T04:15:19.508Z,84.73
2022-12-01T04:17:47.875Z,84.89
2022-12-01T04:20:16.831Z,84.85
2022-12-01T04:22:46.651Z,84.68
2022-12-01T04:25:14.969Z,84.65
2022-12-01T04:27:43.285Z,84.56
2022-12-01T04:30:12.617Z,84.68
2022-12-01T04:32:42.028Z,84.38
2022-12-01T04:35:12.034Z,84.63
2022-12-01T04:37:41.101Z,84.44
2022-12-01T04:40:12.052Z,84.22
2022-12-01T04:42:40.788Z,84.23
2022-12-01T04:45:10.600Z,84.27
2022-12-01T04:47:38.884Z,84.08
2022-12-01T04:50:08.210Z,84.02
2022-12-01T04:52:38.327Z,83.70
2022-12-01T04:55:08.554Z,83.72
2022-12-01T04:57:39.666Z,83.40
2022-12-01T05:00:13.477Z,83.51
2022-12-01T05:02:43.499Z,83.50
2022-12-01T05:05:12.326Z,83.26
2022-12-01T05:07:40.673Z,83.31
2022-12-01T05:10:10.105Z,83.25
2022-12-01T05:12:41.206Z,83.31
2022-12-01T05:15:10.175Z,83.45
2022-12-01T05:17:38.489Z,83.25
2022-12-01T05:20:27.104Z,83.38
2022-12-01T05:23:08.107Z,83.61
2022-12-01T05:25:38.060Z,83.08
2022-12-01T05:28:07.876Z,83.25
2022-12-01T05:30:36.302Z,83.53
2022-12-01T05:33:04.694Z,83.29
2022-12-01T05:35:34.711Z,83.26
2022-12-01T05:38:07.813Z,83.51
2022-12-01T05:40:36.912Z,83.42
2022-12-01T05:43:07.918Z,83.37
2022-12-01T05:45:39.978Z,83.36
2022-12-01T05:48:10.537Z,82.88
2022-12-01T05:50:40.367Z,82.70
2022-12-01T05:53:09.091Z,82.82
2022-12-01T05:55:37.839Z,82.65
2022-12-01T05:58:10.011Z,82.60
2022-12-01T06:00:45.433Z,82.54
2022-12-01T06:03:14.488Z,82.62
2022-12-01T06:05:43.428Z,82.39
2022-12-01T06:08:13.654Z,82.35
2022-12-01T06:10:42.531Z,82.26
2022-12-01T06:13:13.916Z,81.87
2022-12-01T06:15:42.425Z,81.87
2022-12-01T06:18:12.276Z,81.67
2022-12-01T06:20:42.822Z,81.57
2022-12-01T06:23:11.165Z,81.31
2022-12-01T06:25:39.509Z,80.99
2022-12-01T06:28:07.815Z,80.39
2022-12-01T06:30:37.525Z,80.25
2022-12-01T06:33:05.880Z,80.10
2022-12-01T06:35:34.342Z,79.97
2022-12-01T06:38:05.586Z,79.87
2022-12-01T06:40:34.327Z,80.00
2022-12-01T06:43:03.692Z,79.68
2022-12-01T06:45:32.371Z,79.78
2022-12-01T06:48:02.210Z,79.85
2022-12-01T06:50:30.492Z,79.61
2022-12-01T06:52:59.385Z,79.18
2022-12-01T06:55:27.830Z,79.54
2022-12-01T06:57:56.537Z,79.33
2022-12-01T07:00:25.481Z,79.52
2022-12-01T07:02:54.004Z,79.37
2022-12-01T07:05:23.901Z,79.43
2022-12-01T07:07:56.460Z,78.98
2022-12-01T07:10:28.528Z,79.28
2022-12-01T07:12:57.380Z,79.26
2022-12-01T07:15:25.700Z,79.08
2022-12-01T07:17:54.148Z,78.74
2022-12-01T07:20:23.877Z,79.34
2022-12-01T07:22:52.186Z,79.02
2022-12-01T07:25:20.536Z,78.84
2022-12-01T07:27:48.912Z,78.94
2022-12-01T07:30:17.529Z,79.13
2022-12-01T07:32:45.791Z,79.69
2022-12-01T07:35:14.153Z,79.44
2022-12-01T07:37:43.818Z,79.74
2022-12-01T07:40:14.194Z,79.44
2022-12-01T07:42:42.695Z,79.72
2022-12-01T07:45:11.345Z,78.94
2022-12-01T07:47:39.789Z,79.21
2022-12-01T07:50:09.131Z,79.27
2022-12-01T07:52:37.444Z,79.27
2022-12-01T07:55:08.295Z,79.15
2022-12-01T07:57:36.836Z,79.16
2022-12-01T08:00:06.246Z,79.25
2022-12-01T08:02:40.656Z,78.80
2022-12-01T08:05:09.843Z,79.13
2022-12-01T08:07:38.141Z,79.10
2022-12-01T08:10:09.063Z,78.97
2022-12-01T08:12:37.586Z,78.89
2022-12-01T08:15:06.520Z,78.74
2022-12-01T08:17:34.850Z,78.90
2022-12-01T08:20:03.283Z,78.62
2022-12-01T08:22:31.756Z,78.84
2022-12-01T08:25:00.329Z,79.01
2022-12-01T08:27:30.027Z,78.93
2022-12-01T08:29:58.320Z,78.93
2022-12-01T08:32:26.640Z,78.80
2022-12-01T08:34:55.194Z,78.57
2022-12-01T08:37:23.548Z,79.18
2022-12-01T08:39:51.963Z,78.50
2022-12-01T08:42:21.211Z,78.37
2022-12-01T08:44:50.913Z,78.53
2022-12-01T08:47:19.274Z,78.64
2022-12-01T08:49:47.912Z,78.22
2022-12-01T08:52:16.580Z,78.78
2022-12-01T08:54:44.940Z,78.29
2022-12-01T08:57:16.228Z,78.58
2022-12-01T08:59:45.202Z,78.79
2022-12-01T09:02:18.333Z,78.21
2022-12-01T09:04:46.685Z,78.11
2022-12-01T09:07:19.099Z,77.50
2022-12-01T09:09:51.482Z,77.93
2022-12-01T09:12:20.012Z,77.71
2022-12-01T09:14:49.910Z,77.85
2022-12-01T09:17:19.749Z,77.74
2022-12-01T09:19:48.532Z,77.34
2022-12-01T09:22:17.023Z,76.90
2022-12-01T09:24:45.364Z,76.73
2022-12-01T09:27:13.648Z,76.87
2022-12-01T09:29:41.955Z,76.74
2022-12-01T09:32:10.366Z,76.29
2022-12-01T09:34:40.165Z,76.06
2022-12-01T09:37:08.545Z,75.95
2022-12-01T09:39:36.878Z,75.49
2022-12-01T09:42:09.370Z,75.47
2022-12-01T09:44:41.374Z,75.00
2022-12-01T09:47:19.277Z,74.38
2022-12-01T09:49:54.506Z,74.93
2022-12-01T09:52:24.888Z,74.55
2022-12-01T09:54:54.556Z,74.32
2022-12-01T09:57:30.399Z,73.89
2022-12-01T09:59:59.687Z,74.21
2022-12-01T10:02:33.122Z,73.55
2022-12-01T10:05:05.299Z,73.55
2022-12-01T10:07:36.561Z,73.94
2022-12-01T10:10:10.651Z,74.06
2022-12-01T10:12:39.366Z,73.27
2022-12-01T10:15:17.626Z,73.33
2022-12-01T10:18:00.181Z,74.00
2022-12-01T10:20:37.070Z,73.28
2022-12-01T10:23:26.712Z,73.71
2022-12-01T10:25:58.216Z,73.15
2022-12-01T10:28:44.770Z,73.19
2022-12-01T10:31:19.538Z,73.24
2022-12-01T10:33:57.820Z,73.11
2022-12-01T10:36:28.377Z,72.79
2022-12-01T10:38:56.709Z,72.46
2022-12-01T10:41:27.595Z,72.38
2022-12-01T10:44:00.920Z,72.21
2022-12-01T10:46:34.138Z,71.52
2022-12-01T10:49:10.192Z,71.84
2022-12-01T10:51:52.579Z,71.52
2022-12-01T10:54:21.679Z,71.27
2022-12-01T10:56:51.520Z,70.80
2022-12-01T10:59:25.956Z,70.86
2022-12-01T11:01:54.855Z,70.78
2022-12-01T11:04:31.063Z,71.06
2022-12-01T11:07:00.841Z,70.90
2022-12-01T11:09:30.452Z,71.19
2022-12-01T11:12:00.116Z,70.89
2022-12-01T11:14:36.134Z,71.07
2022-12-01T11:17:17.576Z,71.24
2022-12-01T11:19:46.020Z,71.00
2022-12-01T11:22:24.145Z,70.79
2022-12-01T11:25:01.342Z,70.92
2022-12-01T11:27:35.359Z,71.38
2022-12-01T11:30:06.431Z,71.45
2022-12-01T11:32:37.992Z,71.18
2022-12-01T11:35:16.074Z,71.25
2022-12-01T11:38:13.245Z,71.12
2022-12-01T11:40:45.541Z,71.45
2022-12-01T11:43:23.561Z,70.80
2022-12-01T11:45:52.279Z,70.80
2022-12-01T11:48:26.082Z,70.93
2022-12-01T11:51:26.686Z,70.61
2022-12-01T11:54:07.732Z,70.42
2022-12-01T11:56:36.121Z,70.24
2022-12-01T11:59:05.889Z,70.48
2022-12-01T12:01:40.820Z,70.68
2022-12-01T12:04:21.536Z,70.32
2022-12-01T12:06:56.324Z,70.81
2022-12-01T12:09:28.264Z,70.63
2022-12-01T12:12:05.360Z,70.44
2022-12-01T12:14:44.391Z,70.95
2022-12-01T12:17:34.535Z,71.18
2022-12-01T12:20:19.255Z,71.21
2022-12-01T12:22:55.737Z,71.37
2022-12-01T12:25:33.139Z,71.85
2022-12-01T12:28:14.289Z,72.83
2022-12-01T12:30:47.975Z,72.96
2022-12-01T12:33:30.367Z,73.23
2022-12-01T12:36:06.072Z,73.32
2022-12-01T12:38:46.100Z,73.66
2022-12-01T12:41:25.226Z,73.38
2022-12-01T12:44:03.481Z,73.25
2022-12-01T12:46:39.935Z,73.36
2022-12-01T12:49:22.671Z,72.88
2022-12-01T12:51:53.722Z,73.29
2022-12-01T12:54:28.704Z,72.36
2022-12-01T12:57:02.412Z,71.86
2022-12-01T12:59:35.805Z,71.32
2022-12-01T13:02:12.231Z,71.59
2022-12-01T13:04:45.069Z,71.97
2022-12-01T13:07:24.524Z,72.31
2022-12-01T13:09:59.333Z,72.76
2022-12-01T13:12:32.775Z,73.12
2022-12-01T13:15:07.694Z,74.23
2022-12-01T13:17:38.732Z,73.87
2022-12-01T13:20:08.906Z,73.47
2022-12-01T13:22:37.434Z,72.26
2022-12-01T13:25:06.476Z,71.87
2022-12-01T13:27:38.566Z,71.75
2022-12-01T13:30:09.301Z,71.87
2022-12-01T13:32:40.443Z,71.28
2022-12-01T13:35:23.535Z,72.26
2022-12-01T13:37:52.129Z,72.44
2022-12-01T13:40:24.137Z,72.23
2022-12-01T13:43:08.598Z,71.16
2022-12-01T13:45:40.130Z,71.00
2022-12-01T13:48:28.102Z,70.68
2022-12-01T13:51:01.334Z,70.87
2022-12-01T13:53:36.800Z,70.81
2022-12-01T13:56:28.107Z,71.38
2022-12-01T13:58:57.911Z,70.98
2022-12-01T14:01:47.807Z,71.67
2022-12-01T14:04:32.437Z,71.65
2022-12-01T14:07:30.147Z,71.64
2022-12-01T14:10:08.673Z,71.84
2022-12-01T14:12:41.691Z,71.53
2022-12-01T14:15:30.003Z,70.92
2022-12-01T14:18:05.182Z,71.08
2022-12-01T14:20:36.018Z,71.05
2022-12-01T14:23:14.368Z,70.97
2022-12-01T14:25:43.113Z,70.81
2022-12-01T14:28:17.361Z,71.14
2022-12-01T14:31:06.261Z,70.90
2022-12-01T14:33:52.330Z,70.53
2022-12-01T14:36:30.833Z,70.77
2022-12-01T14:39:03.715Z,70.91
2022-12-01T14:41:33.764Z,70.51
2022-12-01T14:44:05.485Z,70.88
2022-12-01T14:46:41.846Z,70.90
2022-12-01T14:49:17.004Z,70.94
2022-12-01T14:51:47.725Z,70.88
2022-12-01T14:54:21.824Z,70.93
2022-12-01T14:56:55.341Z,70.88
2022-12-01T14:59:26.391Z,71.17
2022-12-01T15:01:57.908Z,71.54
2022-12-01T15:04:26.319Z,71.54
2022-12-01T15:06:56.506Z,71.71
2022-12-01T15:09:35.139Z,72.27
2022-12-01T15:12:07.624Z,71.86
2022-12-01T15:14:37.733Z,71.83
2022-12-01T15:17:09.192Z,71.57
2022-12-01T15:19:39.302Z,71.42
2022-12-01T15:22:13.445Z,71.92
2022-12-01T15:24:42.643Z,71.56
2022-12-01T15:27:26.258Z,71.86
2022-12-01T15:29:54.811Z,71.44
2022-12-01T15:32:25.611Z,72.16
2022-12-01T15:34:55.721Z,72.43
2022-12-01T15:37:26.099Z,72.49
2022-12-01T15:40:11.951Z,72.21
2022-12-01T15:42:44.913Z,72.47
2022-12-01T15:45:19.530Z,73.21
2022-12-01T15:47:51.445Z,72.98
2022-12-01T15:50:31.321Z,73.52
2022-12-01T15:53:00.993Z,73.12
2022-12-01T15:55:31.649Z,73.70
2022-12-01T15:58:02.795Z,73.78
2022-12-01T16:00:31.428Z,73.88
2022-12-01T16:03:02.149Z,73.62
2022-12-01T16:05:33.318Z,73.56
2022-12-01T16:08:15.582Z,73.83
2022-12-01T16:10:44.171Z,73.47
2022-12-01T16:13:37.753Z,74.22
2022-12-01T16:16:23.221Z,73.58
2022-12-01T16:19:08.096Z,73.84
2022-12-01T16:21:44.343Z,73.54
2022-12-01T16:24:17.109Z,73.71
2022-12-01T16:26:49.273Z,73.63
2022-12-01T16:29:21.821Z,73.41
2022-12-01T16:32:19.756Z,73.90
2022-12-01T16:34:48.222Z,74.10
2022-12-01T16:37:16.884Z,73.79
2022-12-01T16:39:45.298Z,74.16
2022-12-01T16:42:16.459Z,74.38
2022-12-01T16:44:46.656Z,74.27
2022-12-01T16:47:17.016Z,74.87
2022-12-01T16:49:46.914Z,74.84
2022-12-01T16:52:43.192Z,74.72
2022-12-01T16:55:03.694Z,73.62
2022-12-01T16:57:32.038Z,73.67
2022-12-01T17:00:00.606Z,74.43
2022-12-01T17:02:28.992Z,74.56
2022-12-01T17:05:00.381Z,75.16
2022-12-01T17:07:29.146Z,74.66
2022-12-01T17:09:57.491Z,74.62
2022-12-01T17:12:26.866Z,74.57
2022-12-01T17:14:55.268Z,73.82
2022-12-01T17:17:23.719Z,73.92
2022-12-01T17:19:53.099Z,73.61
2022-12-01T17:22:22.976Z,73.28
2022-12-01T17:24:51.699Z,73.02
2022-12-01T17:27:21.368Z,72.93
2022-12-01T17:29:49.752Z,73.27
2022-12-01T17:32:18.289Z,73.75
2022-12-01T17:34:46.726Z,74.01
2022-12-01T17:37:20.776Z,73.90
2022-12-01T17:39:51.213Z,73.82
2022-12-01T17:42:19.699Z,74.23
2022-12-01T17:44:48.357Z,74.22
2022-12-01T17:47:19.002Z,73.92
2022-12-01T17:49:47.988Z,74.28
2022-12-01T17:52:16.532Z,73.76
2022-12-01T17:54:45.150Z,73.78
2022-12-01T17:57:19.297Z,73.94
2022-12-01T18:03:25.857Z,74.75
2022-12-01T18:05:57.999Z,74.61
2022-12-01T18:08:28.015Z,74.90
2022-12-01T18:10:57.410Z,74.61
2022-12-01T18:13:27.284Z,74.99
2022-12-01T18:15:57.859Z,75.48
2022-12-01T18:18:26.309Z,75.24
2022-12-01T18:20:55.651Z,75.27
2022-12-01T18:24:00.307Z,75.17
2022-12-01T18:26:29.599Z,75.45
2022-12-01T18:29:05.226Z,75.42
2022-12-01T18:31:34.492Z,75.90
2022-12-01T18:34:07.043Z,75.69
2022-12-01T18:36:39.892Z,76.08
2022-12-01T18:39:10.726Z,75.56
2022-12-01T18:41:40.347Z,75.61
2022-12-01T18:44:10.984Z,75.53
2022-12-01T18:46:39.546Z,75.86
2022-12-01T18:49:09.269Z,75.85
2022-12-01T18:51:38.877Z,76.00
2022-12-01T18:54:09.250Z,75.81
2022-12-01T18:56:38.857Z,76.17
2022-12-01T18:59:11.344Z,76.19
2022-12-01T19:01:43.956Z,75.78
2022-12-01T19:04:13.923Z,76.01
2022-12-01T19:06:43.574Z,76.14
2022-12-01T19:09:13.555Z,76.05
2022-12-01T19:11:42.493Z,76.26
2022-12-01T19:14:15.759Z,76.16
2022-12-01T19:16:44.490Z,76.22
2022-12-01T19:19:13.036Z,75.96
2022-12-01T19:21:42.879Z,75.61
2022-12-01T19:24:11.379Z,76.48
2022-12-01T19:26:40.497Z,76.44
2022-12-01T19:29:09.070Z,76.91
2022-12-01T19:31:39.464Z,76.76
2022-12-01T19:34:08.011Z,76.63
2022-12-01T19:36:36.663Z,76.72
2022-12-01T19:39:07.887Z,77.12
2022-12-01T19:41:38.805Z,77.30
2022-12-01T19:44:07.348Z,77.41
2022-12-01T19:46:35.835Z,77.62
2022-12-01T19:49:06.842Z,77.49
2022-12-01T19:51:36.945Z,77.11
2022-12-01T19:54:06.354Z,77.25
2022-12-01T19:56:34.767Z,76.49
2022-12-01T19:59:03.320Z,76.27
2022-12-01T20:01:32.002Z,76.57
2022-12-01T20:04:01.272Z,76.39
2022-12-01T20:06:32.562Z,76.71
2022-12-01T20:09:03.814Z,77.04
2022-12-01T20:11:33.189Z,77.54
2022-12-01T20:14:01.684Z,77.78
2022-12-01T20:16:30.620Z,77.83
2022-12-01T20:19:01.838Z,77.88
2022-12-01T20:21:33.783Z,78.02
2022-12-01T20:24:03.621Z,77.85
2022-12-01T20:26:33.840Z,77.60
2022-12-01T20:29:05.136Z,77.92
2022-12-01T20:31:34.728Z,77.77
2022-12-01T20:34:05.304Z,77.90
2022-12-01T20:36:35.345Z,78.10
2022-12-01T20:39:04.072Z,78.09
2022-12-01T20:41:32.551Z,77.95
2022-12-01T20:44:05.509Z,78.35
2022-12-01T20:46:36.226Z,78.22
2022-12-01T20:49:05.161Z,78.42
2022-12-01T20:51:35.132Z,78.31
2022-12-01T20:54:27.763Z,78.45
2022-12-01T20:56:54.020Z,78.12
2022-12-01T20:59:22.693Z,77.95
2022-12-01T21:01:51.240Z,78.40
2022-12-01T21:04:22.824Z,78.38
2022-12-01T21:06:54.477Z,78.59
2022-12-01T21:09:23.253Z,78.85
2022-12-01T21:12:10.155Z,78.68
2022-12-01T21:14:41.067Z,78.79
2022-12-01T21:17:18.504Z,77.96
2022-12-01T21:19:50.377Z,77.40
2022-12-01T21:22:20.563Z,77.29
2022-12-01T21:24:52.015Z,77.84
2022-12-01T21:27:20.606Z,77.34
2022-12-01T21:29:50.160Z,77.38
2022-12-01T21:32:19.889Z,77.56
2022-12-01T21:34:49.431Z,77.21
2022-12-01T21:37:22.918Z,77.75
2022-12-01T21:39:52.755Z,76.86
2022-12-01T21:42:22.421Z,76.46
2022-12-01T21:44:51.178Z,76.86
2022-12-01T21:47:23.487Z,76.74
2022-12-01T21:49:54.721Z,76.86
2022-12-01T21:52:30.370Z,77.08
2022-12-01T21:55:03.190Z,77.18
2022-12-01T21:57:42.350Z,77.17
2022-12-01T22:00:28.996Z,77.26
2022-12-01T22:03:16.926Z,77.41
2022-12-01T22:06:07.139Z,77.65
2022-12-01T22:08:38.737Z,77.41
2022-12-01T22:11:12.827Z,77.69
2022-12-01T22:13:43.413Z,77.56
2022-12-01T22:16:18.161Z,77.02
2022-12-01T22:18:50.544Z,75.84
2022-12-01T22:21:46.870Z,75.98
2022-12-01T22:24:28.485Z,75.75
2022-12-01T22:27:13.194Z,75.81
2022-12-01T22:29:43.923Z,75.67
2022-12-01T22:32:35.080Z,75.55
2022-12-01T22:35:19.902Z,75.76
2022-12-01T22:37:50.292Z,76.40
2022-12-01T22:40:44.439Z,75.69
2022-12-01T22:43:46.990Z,75.41
2022-12-01T22:46:26.786Z,75.13
2022-12-01T22:48:57.169Z,75.48
2022-12-01T22:51:41.949Z,75.15
2022-12-01T22:54:40.415Z,75.33
2022-12-01T22:57:30.918Z,75.33
2022-12-01T22:59:59.690Z,74.90
2022-12-01T23:02:33.308Z,75.04
2022-12-01T23:05:03.432Z,74.83
2022-12-01T23:07:34.563Z,75.33
2022-12-01T23:10:08.754Z,75.47
2022-12-01T23:12:44.031Z,74.98
2022-12-01T23:15:21.421Z,75.08
2022-12-01T23:17:50.252Z,75.68
2022-12-01T23:20:28.225Z,75.71
2022-12-01T23:22:57.236Z,75.54
2022-12-01T23:25:27.428Z,75.65
2022-12-01T23:28:00.669Z,75.42
2022-12-01T23:30:29.150Z,75.78
2022-12-01T23:33:16.694Z,75.73
2022-12-01T23:35:48.323Z,76.13
2022-12-01T23:38:19.508Z,76.21
2022-12-01T23:40:48.977Z,76.16
2022-12-01T23:43:21.644Z,76.85
2022-12-01T23:45:52.512Z,77.52
2022-12-01T23:48:23.422Z,77.31
2022-12-01T23:50:54.637Z,77.10
2022-12-01T23:53:29.046Z,76.67
2022-12-01T23:55:58.351Z,76.46
2022-12-01T23:58:28.728Z,75.93
